City Of Vicksburg — WDC2660 — position and weather

sailwx.info

Track history (hours):
 
Tides and Currents Weather Stations Pressure Air Temp Water Temp Dewpoint Dewpoint Depression Visibility Wind Speed Wind Dir Waves Ship Positions

City Of Vicksburg

Owner: Kirby Inland Marine LP, Houston, TX. More information available from US FCC via Universal Licensing System and Coast Guard Vessel Documentation Center.

Last reported at 2016-May-26 02:32 UTC. Time now 2016-May-26 02:40 UTC.
Position N 32°49' W 091°09'.

Length 50 m; draft 2.9 m.

Type: Ship (hazmat cat A). MMSI: 366996120.

Date/timePositionNaut miles runAvg speedWind from/ knotsBaromVisibWave heightAir tempDewpointWater temp
2016-May-26 02:32N 32°49' W 091°09'9 2.1
2016-May-25 22:26N 32°40' W 091°07'4 4.2
2016-May-25 21:34N 32°37' W 091°09'1 0.9
2016-May-25 20:34N 32°36' W 091°09'4 4.4
2016-May-25 19:33N 32°32' W 091°06'4 4.4
2016-May-25 18:33N 32°28' W 091°06'5 4.5
2016-May-25 17:34N 32°26' W 091°01'3 3.3
2016-May-25 16:34N 32°23' W 091°00'3 3.1
2016-May-25 15:33N 32°21' W 090°57'2 1.8
2016-May-25 14:34N 32°20' W 090°55'4 3.9
2016-May-25 13:33N 32°17' W 090°57'5 4.7
2016-May-25 12:33N 32°13' W 090°59'4 4.5
2016-May-25 11:34N 32°08' W 091°00'4 4.3
2016-May-25 10:34N 32°08' W 091°05'4 3.1
2016-May-25 09:21N 32°05' W 091°04'4 4.6
2016-May-25 08:33N 32°01' W 091°05'  
2016-May-22 03:24N 31°59' W 091°07'8 9.0
2016-May-22 02:34N 32°07' W 091°06'8 8.0
2016-May-22 01:34N 32°12' W 090°59'9 9.3
2016-May-22 00:34N 32°21' W 090°56'9 8.6
2016-May-21 23:34N 32°26' W 091°03'1110.5
2016-May-21 22:34N 32°36' W 091°08'  
Track history (hours):
 
Tides and Currents Weather Stations Pressure Air Temp Water Temp Dewpoint Dewpoint Depression Visibility Wind Speed Wind Dir Waves Ship Positions

City Of Vicksburg

Owner: Kirby Inland Marine LP, Houston, TX. More information available from US FCC via Universal Licensing System and Coast Guard Vessel Documentation Center.

Last reported at 2016-May-26 02:32 UTC. Time now 2016-May-26 02:40 UTC.
Position N 32°49' W 091°09'.

Length 50 m; draft 2.9 m.

Type: Ship (hazmat cat A). MMSI: 366996120.

Date/timePositionNaut miles runAvg speedWind from/ knotsBaromVisibWave heightAir tempDewpointWater temp
2016-May-26 02:32N 32°49' W 091°09'9 2.1
2016-May-25 22:26N 32°40' W 091°07'4 4.2
2016-May-25 21:34N 32°37' W 091°09'1 0.9
2016-May-25 20:34N 32°36' W 091°09'4 4.4
2016-May-25 19:33N 32°32' W 091°06'4 4.4
2016-May-25 18:33N 32°28' W 091°06'5 4.5
2016-May-25 17:34N 32°26' W 091°01'3 3.3
2016-May-25 16:34N 32°23' W 091°00'3 3.1
2016-May-25 15:33N 32°21' W 090°57'2 1.8
2016-May-25 14:34N 32°20' W 090°55'4 3.9
2016-May-25 13:33N 32°17' W 090°57'5 4.7
2016-May-25 12:33N 32°13' W 090°59'4 4.5
2016-May-25 11:34N 32°08' W 091°00'4 4.3
2016-May-25 10:34N 32°08' W 091°05'4 3.1
2016-May-25 09:21N 32°05' W 091°04'4 4.6
2016-May-25 08:33N 32°01' W 091°05'  
2016-May-22 03:24N 31°59' W 091°07'8 9.0
2016-May-22 02:34N 32°07' W 091°06'8 8.0
2016-May-22 01:34N 32°12' W 090°59'9 9.3
2016-May-22 00:34N 32°21' W 090°56'9 8.6
2016-May-21 23:34N 32°26' W 091°03'1110.5
2016-May-21 22:34N 32°36' W 091°08'  

Dump ship's entire track history